Time;durP1;ratioP1;P1;durP2;ratioP2;P2;SDS_P1;SDS_P2;PMS_P1;PMS_P2;Temp;Humidity;BMP_temperature;BMP_pressure;BME280_temperature;BME280_humidity;BME280_pressure;Samples;Min_cycle;Max_cycle;Signal;HPM_P1;HPM_P2
2022/04/09 00:00:07;;;;;;;11.55;2.53;;;4.20;99.90;;;;;;5072789;28;20045;-71
2022/04/09 00:02:33;;;;;;;13.38;2.42;;;4.10;99.90;;;;;;5071332;28;20053;-71
2022/04/09 00:04:59;;;;;;;12.35;2.15;;;4.10;99.90;;;;;;5071565;28;20090;-71
2022/04/09 00:07:25;;;;;;;14.65;4.20;;;4.00;99.90;;;;;;5068422;28;20032;-71
2022/04/09 00:09:50;;;;;;;9.95;2.40;;;4.00;99.90;;;;;;5072699;28;20043;-71
2022/04/09 00:12:16;;;;;;;14.40;2.38;;;4.00;99.90;;;;;;5072778;28;20418;-71
2022/04/09 00:14:42;;;;;;;11.30;2.75;;;4.10;99.90;;;;;;5051266;28;20040;-71
2022/04/09 00:17:09;;;;;;;10.25;2.72;;;4.20;99.90;;;;;;5051639;28;20179;-72
2022/04/09 00:19:36;;;;;;;10.30;2.60;;;4.30;99.90;;;;;;5051359;28;20128;-72
2022/04/09 00:22:03;;;;;;;8.55;1.95;;;4.40;99.90;;;;;;5052426;28;20134;-71
2022/04/09 00:24:29;;;;;;;10.02;2.63;;;4.50;99.90;;;;;;5034541;28;20130;-72
2022/04/09 00:26:55;;;;;;;8.82;2.13;;;4.50;99.90;;;;;;5051122;28;20036;-72
2022/04/09 00:29:20;;;;;;;9.88;1.67;;;4.50;99.90;;;;;;5052466;28;20041;-71
2022/04/09 00:31:46;;;;;;;10.43;1.25;;;4.60;99.90;;;;;;5034634;28;20041;-71
2022/04/09 00:34:12;;;;;;;5.82;2.65;;;4.50;99.90;;;;;;5051447;28;20044;-71
2022/04/09 00:36:38;;;;;;;5.93;1.52;;;4.50;99.90;;;;;;5051270;28;20489;-71
2022/04/09 00:39:04;;;;;;;8.45;1.75;;;4.50;99.90;;;;;;5051642;28;20045;-71
2022/04/09 00:41:30;;;;;;;6.93;1.48;;;4.40;99.90;;;;;;5055396;28;20084;-71
2022/04/09 00:43:56;;;;;;;6.05;1.52;;;4.40;99.90;;;;;;5049939;28;20509;-72
2022/04/09 00:46:22;;;;;;;7.57;1.50;;;4.50;99.90;;;;;;5055243;28;20040;-71
2022/04/09 00:48:49;;;;;;;12.40;1.95;;;4.50;99.90;;;;;;5054837;28;20037;-71
2022/04/09 00:51:14;;;;;;;8.63;1.65;;;4.50;99.90;;;;;;5054907;28;20457;-71
2022/04/09 00:53:45;;;;;;;5.90;1.48;;;4.60;99.90;;;;;;5054752;28;20131;-72
2022/04/09 00:56:15;;;;;;;8.82;1.77;;;4.60;99.90;;;;;;5038385;28;20139;-71
2022/04/09 00:58:47;;;;;;;6.53;1.30;;;4.60;99.90;;;;;;5054972;28;20508;-71
2022/04/09 01:01:14;;;;;;;7.57;1.58;;;4.60;99.90;;;;;;5055932;28;20496;-71
2022/04/09 01:03:41;;;;;;;10.40;1.65;;;4.50;99.90;;;;;;5055919;28;20127;-71
2022/04/09 01:06:09;;;;;;;11.77;2.60;;;4.50;99.90;;;;;;5054834;28;20041;-71
2022/04/09 01:08:35;;;;;;;9.77;1.92;;;4.40;99.90;;;;;;5054874;28;20037;-71
2022/04/09 01:11:01;;;;;;;6.72;2.13;;;4.40;99.90;;;;;;5054548;28;20508;-71
2022/04/09 01:13:27;;;;;;;10.45;2.00;;;4.30;99.90;;;;;;5060973;28;20047;-71
2022/04/09 01:15:53;;;;;;;7.22;1.77;;;4.30;99.90;;;;;;5074435;28;20148;-71
2022/04/09 01:18:19;;;;;;;9.45;2.22;;;4.30;99.90;;;;;;5074393;28;20041;-71
2022/04/09 01:20:45;;;;;;;7.18;1.58;;;4.30;99.90;;;;;;5074295;28;20048;-71
2022/04/09 01:23:11;;;;;;;5.50;1.88;;;4.30;99.90;;;;;;5075313;28;20475;-71
2022/04/09 01:25:40;;;;;;;8.68;1.73;;;4.40;99.90;;;;;;5075742;28;20036;-71
2022/04/09 01:28:06;;;;;;;7.22;1.50;;;4.40;99.90;;;;;;5057438;28;20032;-71
2022/04/09 01:30:32;;;;;;;8.85;1.67;;;4.40;99.90;;;;;;5057457;28;20116;-71
2022/04/09 01:32:58;;;;;;;10.75;2.50;;;4.40;99.90;;;;;;5074295;28;20127;-71
2022/04/09 01:35:24;;;;;;;5.32;1.42;;;4.40;99.90;;;;;;5075288;28;20050;-71
2022/04/09 01:37:50;;;;;;;5.43;1.35;;;4.40;99.90;;;;;;5057640;28;20047;-71
2022/04/09 01:40:15;;;;;;;7.18;1.60;;;4.30;99.90;;;;;;5075572;28;20036;-71
2022/04/09 01:42:41;;;;;;;6.72;1.65;;;4.30;99.90;;;;;;5057133;28;20044;-71
2022/04/09 01:45:08;;;;;;;9.98;1.92;;;4.40;99.90;;;;;;5073133;28;20045;-71
2022/04/09 01:47:36;;;;;;;7.78;2.40;;;4.40;99.90;;;;;;5073862;28;20465;-72
2022/04/09 01:50:02;;;;;;;7.80;2.03;;;4.40;99.90;;;;;;5073829;28;20037;-71
2022/04/09 01:52:28;;;;;;;4.85;2.65;;;4.40;99.90;;;;;;5057090;28;20036;-72
2022/04/09 01:54:53;;;;;;;6.55;2.03;;;4.50;99.90;;;;;;5073728;28;20040;-71
2022/04/09 01:57:19;;;;;;;9.40;2.25;;;4.50;99.90;;;;;;5073942;28;20041;-71
2022/04/09 01:59:46;;;;;;;6.70;1.65;;;4.50;99.90;;;;;;5057057;28;20507;-71
2022/04/09 02:02:11;;;;;;;8.38;1.75;;;4.60;99.90;;;;;;5074923;28;20041;-70
2022/04/09 02:04:37;;;;;;;6.25;1.13;;;4.50;99.90;;;;;;5073347;28;20045;-70
2022/04/09 02:07:03;;;;;;;4.82;1.23;;;4.50;99.90;;;;;;5074940;28;20041;-70
2022/04/09 02:09:29;;;;;;;10.68;2.28;;;4.40;99.90;;;;;;5073435;28;20037;-70
2022/04/09 02:11:55;;;;;;;5.50;1.42;;;4.40;99.90;;;;;;5073499;28;20133;-70
2022/04/09 02:14:20;;;;;;;5.65;1.40;;;4.40;99.90;;;;;;5054970;28;20053;-70
2022/04/09 02:16:46;;;;;;;5.82;1.58;;;4.40;99.90;;;;;;5053297;28;20080;-70
2022/04/09 02:19:12;;;;;;;9.75;2.35;;;4.30;99.90;;;;;;5053000;28;20037;-70
2022/04/09 02:21:38;;;;;;;6.80;1.63;;;4.30;99.90;;;;;;5054657;28;20052;-70
2022/04/09 02:24:04;;;;;;;7.53;1.88;;;4.30;99.90;;;;;;5036519;28;20037;-70
2022/04/09 02:26:30;;;;;;;10.10;2.15;;;4.30;99.90;;;;;;5054556;28;20044;-70
2022/04/09 02:28:57;;;;;;;7.10;1.88;;;4.20;99.90;;;;;;5053060;28;20044;-70
2022/04/09 02:31:22;;;;;;;12.73;1.95;;;4.30;99.90;;;;;;5053066;28;20045;-70
2022/04/09 02:33:48;;;;;;;6.03;1.50;;;4.30;99.90;;;;;;5053152;28;20102;-70
2022/04/09 02:36:15;;;;;;;11.38;1.85;;;4.30;99.90;;;;;;5053326;28;20080;-70
2022/04/09 02:38:42;;;;;;;8.77;1.33;;;4.40;99.90;;;;;;5052957;28;20478;-71
2022/04/09 02:41:09;;;;;;;6.80;1.75;;;4.40;99.90;;;;;;5052871;28;20047;-70
2022/04/09 02:43:40;;;;;;;3.92;0.90;;;4.50;99.90;;;;;;5050410;28;20811;-70
2022/04/09 02:46:06;;;;;;;5.78;2.00;;;4.50;99.90;;;;;;5054098;28;20386;-71
2022/04/09 02:48:32;;;;;;;6.22;1.15;;;4.50;99.90;;;;;;5052573;28;20041;-70
2022/04/09 02:50:58;;;;;;;3.45;1.08;;;4.50;99.90;;;;;;5053901;28;20041;-71
2022/04/09 02:53:24;;;;;;;3.80;0.90;;;4.40;99.90;;;;;;5052567;28;20097;-70
2022/04/09 02:55:50;;;;;;;5.30;1.20;;;4.30;99.90;;;;;;5052609;28;20308;-70
2022/04/09 02:58:15;;;;;;;5.97;1.10;;;4.20;99.90;;;;;;5053772;28;20040;-70
2022/04/09 03:00:41;;;;;;;3.15;0.85;;;4.20;99.90;;;;;;5053745;28;20040;-70
2022/04/09 03:03:07;;;;;;;4.50;1.13;;;4.10;99.90;;;;;;5052006;28;20541;-70
2022/04/09 03:05:33;;;;;;;3.83;1.00;;;4.10;99.90;;;;;;5053769;28;20045;-70
2022/04/09 03:07:59;;;;;;;2.55;0.93;;;4.00;99.90;;;;;;5052656;28;20041;-70
2022/04/09 03:10:25;;;;;;;4.03;0.90;;;4.00;99.90;;;;;;5053485;28;20045;-70
2022/04/09 03:12:51;;;;;;;5.45;1.00;;;3.90;99.90;;;;;;5057171;28;20033;-70
2022/04/09 03:15:17;;;;;;;4.70;1.00;;;3.90;99.90;;;;;;5070159;28;20356;-70
2022/04/09 03:17:44;;;;;;;4.75;1.27;;;3.80;99.90;;;;;;5072341;28;20047;-70
2022/04/09 03:20:11;;;;;;;3.67;1.10;;;3.80;99.90;;;;;;5073365;28;20052;-70
2022/04/09 03:22:36;;;;;;;6.78;1.27;;;3.80;99.90;;;;;;5073482;28;20051;-70
2022/04/09 03:25:03;;;;;;;7.75;1.63;;;3.80;99.90;;;;;;5071976;28;20037;-70
2022/04/09 03:27:29;;;;;;;4.55;1.25;;;3.80;99.90;;;;;;5073353;28;20029;-70
2022/04/09 03:29:56;;;;;;;6.35;1.42;;;3.90;99.90;;;;;;5071879;28;20041;-70
2022/04/09 03:32:22;;;;;;;7.82;1.77;;;4.00;99.90;;;;;;5071844;28;20473;-70
2022/04/09 03:34:49;;;;;;;6.43;1.27;;;4.00;99.90;;;;;;5072061;28;20043;-70
2022/04/09 03:37:15;;;;;;;5.90;1.20;;;4.10;99.90;;;;;;5072073;28;20079;-70
2022/04/09 03:39:42;;;;;;;5.15;1.52;;;4.00;99.90;;;;;;5072921;28;20123;-70
2022/04/09 03:42:08;;;;;;;3.33;1.10;;;4.00;99.90;;;;;;5071796;28;20036;-70
2022/04/09 03:44:34;;;;;;;11.52;1.45;;;3.90;99.90;;;;;;5069287;28;20047;-70
2022/04/09 03:47:01;;;;;;;6.82;1.38;;;3.90;99.90;;;;;;5055005;28;20059;-70
2022/04/09 03:49:31;;;;;;;8.55;2.40;;;3.80;99.90;;;;;;5054930;28;20040;-70
2022/04/09 03:51:57;;;;;;;10.60;2.38;;;3.80;99.90;;;;;;5071680;28;20052;-70
2022/04/09 03:54:23;;;;;;;8.95;1.75;;;3.70;99.90;;;;;;5072864;28;20393;-70
2022/04/09 03:56:49;;;;;;;7.18;1.55;;;3.70;99.90;;;;;;5071757;28;20048;-70
2022/04/09 03:59:16;;;;;;;10.82;1.92;;;3.60;99.90;;;;;;5071373;28;20504;-69
2022/04/09 04:01:44;;;;;;;8.40;1.60;;;3.60;99.90;;;;;;5071445;28;20123;-69
2022/04/09 04:04:10;;;;;;;8.57;1.30;;;3.60;99.90;;;;;;5071395;28;20444;-69
2022/04/09 04:06:37;;;;;;;10.02;3.05;;;3.70;99.90;;;;;;5071468;28;20484;-70
2022/04/09 04:09:03;;;;;;;10.40;1.67;;;3.70;99.90;;;;;;5071677;28;20051;-70
2022/04/09 04:11:29;;;;;;;10.50;1.75;;;3.70;99.90;;;;;;5072645;28;20032;-70
2022/04/09 04:13:55;;;;;;;5.60;1.52;;;3.70;99.90;;;;;;5057116;28;20047;-70
2022/04/09 04:16:21;;;;;;;12.23;2.00;;;3.70;99.90;;;;;;5055766;28;20063;-71
2022/04/09 04:18:47;;;;;;;7.90;1.45;;;3.70;99.90;;;;;;5055810;28;20045;-70
2022/04/09 04:21:12;;;;;;;6.72;1.48;;;3.80;99.90;;;;;;5038566;28;20065;-70
2022/04/09 04:23:38;;;;;;;10.80;1.63;;;3.90;99.90;;;;;;5052475;28;20071;-69
2022/04/09 04:26:04;;;;;;;7.60;1.40;;;4.00;99.90;;;;;;5038970;28;20041;-70
2022/04/09 04:28:30;;;;;;;10.52;1.95;;;4.00;99.90;;;;;;5055580;28;20055;-71
2022/04/09 04:30:56;;;;;;;9.50;1.88;;;4.20;99.90;;;;;;5056735;28;20044;-70
2022/04/09 04:33:22;;;;;;;9.55;1.58;;;4.30;99.90;;;;;;5055261;28;20041;-70
2022/04/09 04:35:47;;;;;;;10.85;3.40;;;4.40;99.90;;;;;;5055389;28;20377;-71
2022/04/09 04:38:13;;;;;;;7.88;1.70;;;4.50;99.90;;;;;;5055157;28;20051;-70
2022/04/09 04:40:39;;;;;;;7.70;1.25;;;4.50;99.90;;;;;;5056223;28;20123;-70
2022/04/09 04:43:06;;;;;;;6.40;1.40;;;4.60;99.90;;;;;;5056194;28;20041;-70
2022/04/09 04:45:32;;;;;;;9.95;3.15;;;4.60;99.90;;;;;;5053017;28;20052;-70
2022/04/09 04:47:58;;;;;;;10.70;1.83;;;4.60;99.90;;;;;;5038382;28;20072;-70
2022/04/09 04:50:25;;;;;;;6.60;1.50;;;4.60;99.90;;;;;;5055152;28;20033;-70
2022/04/09 04:52:51;;;;;;;4.90;1.25;;;4.50;99.90;;;;;;5056031;28;20104;-70
2022/04/09 04:55:17;;;;;;;9.15;1.75;;;4.50;99.90;;;;;;5038422;28;20131;-70
2022/04/09 04:57:46;;;;;;;8.30;1.30;;;4.40;99.90;;;;;;5054864;28;20037;-70
2022/04/09 05:00:17;;;;;;;10.85;1.40;;;4.40;99.90;;;;;;5054711;28;20052;-70
2022/04/09 05:02:44;;;;;;;4.80;1.30;;;4.40;99.90;;;;;;5052403;28;20045;-70
2022/04/09 05:05:10;;;;;;;7.53;1.70;;;4.40;99.90;;;;;;5054640;28;20044;-70
2022/04/09 05:07:42;;;;;;;6.63;1.60;;;4.40;99.90;;;;;;5056041;28;20041;-70
2022/04/09 05:10:16;;;;;;;7.53;1.77;;;4.40;99.90;;;;;;5055895;28;20041;-70
2022/04/09 05:12:43;;;;;;;5.63;1.58;;;4.40;99.90;;;;;;5056877;28;20047;-70
2022/04/09 05:15:11;;;;;;;6.82;1.85;;;4.40;99.90;;;;;;5072512;28;20044;-70
2022/04/09 05:17:37;;;;;;;5.38;1.58;;;4.40;99.90;;;;;;5074718;28;20342;-70
2022/04/09 05:20:05;;;;;;;8.27;1.48;;;4.30;99.90;;;;;;5075538;28;20044;-70
2022/04/09 05:22:31;;;;;;;7.00;1.73;;;4.30;99.90;;;;;;5071593;28;20102;-70
2022/04/09 05:24:58;;;;;;;9.27;1.75;;;4.40;99.90;;;;;;5074156;28;20037;-70
2022/04/09 05:27:24;;;;;;;15.35;2.58;;;4.40;99.90;;;;;;5074423;28;20102;-69
2022/04/09 05:29:50;;;;;;;7.47;1.98;;;4.40;99.90;;;;;;5074320;28;20068;-70
2022/04/09 05:32:17;;;;;;;12.35;2.33;;;4.50;99.90;;;;;;5074314;28;20443;-70
2022/04/09 05:34:43;;;;;;;11.07;1.95;;;4.50;99.90;;;;;;5074127;28;20048;-70
2022/04/09 05:37:09;;;;;;;5.65;1.90;;;4.50;99.90;;;;;;5074331;28;20100;-70
2022/04/09 05:39:35;;;;;;;14.77;3.10;;;4.60;99.90;;;;;;5074000;28;20115;-70
2022/04/09 05:42:01;;;;;;;9.68;1.90;;;4.60;99.90;;;;;;5074127;28;20738;-70
2022/04/09 05:44:27;;;;;;;11.27;2.13;;;4.50;99.90;;;;;;5073125;28;20040;-70
2022/04/09 05:46:53;;;;;;;8.15;2.60;;;4.60;99.90;;;;;;5057178;28;20178;-70
2022/04/09 05:49:20;;;;;;;6.70;1.83;;;4.60;99.90;;;;;;5074183;28;20036;-70
2022/04/09 05:51:47;;;;;;;12.63;2.05;;;4.70;99.90;;;;;;5075027;28;20469;-70
2022/04/09 05:54:13;;;;;;;10.60;2.78;;;4.70;99.90;;;;;;5074915;28;20048;-70
2022/04/09 05:56:39;;;;;;;8.65;1.85;;;4.80;99.90;;;;;;5040826;28;20055;-70
2022/04/09 05:59:05;;;;;;;12.45;2.33;;;4.80;99.90;;;;;;5073734;28;20614;-70
2022/04/09 06:01:31;;;;;;;5.57;1.55;;;4.90;99.90;;;;;;5074822;28;20497;-70
2022/04/09 06:03:58;;;;;;;11.95;2.45;;;5.00;99.90;;;;;;5073729;28;20040;-70
2022/04/09 06:06:24;;;;;;;6.60;1.73;;;5.10;99.90;;;;;;5074786;28;20024;-70
2022/04/09 06:08:50;;;;;;;12.75;2.30;;;5.20;99.90;;;;;;5074697;28;20047;-70
2022/04/09 06:11:16;;;;;;;7.30;1.90;;;5.40;99.90;;;;;;5073724;28;20032;-70
2022/04/09 06:13:42;;;;;;;9.52;2.15;;;5.60;99.90;;;;;;5061864;28;20392;-70
2022/04/09 06:16:09;;;;;;;8.30;1.40;;;5.70;99.90;;;;;;5036929;28;20052;-70
2022/04/09 06:18:38;;;;;;;11.43;2.05;;;5.80;99.90;;;;;;5053282;28;20080;-70
2022/04/09 06:21:08;;;;;;;8.02;1.75;;;5.90;99.90;;;;;;5052991;28;20662;-70
2022/04/09 06:23:34;;;;;;;7.78;1.38;;;6.10;99.90;;;;;;5054369;28;20065;-70
2022/04/09 06:26:00;;;;;;;8.60;2.05;;;6.40;99.90;;;;;;5053384;28;20044;-70
2022/04/09 06:28:26;;;;;;;6.85;2.20;;;6.60;99.90;;;;;;5053194;28;20239;-69
2022/04/09 06:30:52;;;;;;;10.50;2.38;;;6.70;99.90;;;;;;5054355;28;20048;-71
2022/04/09 06:33:18;;;;;;;8.70;1.60;;;6.80;99.90;;;;;;5053023;28;20049;-70
2022/04/09 06:35:46;;;;;;;9.02;2.28;;;6.80;99.90;;;;;;5057138;28;20045;-70
2022/04/09 06:38:12;;;;;;;19.23;2.95;;;6.80;99.90;;;;;;5072631;28;20052;-71
2022/04/09 06:40:38;;;;;;;8.05;1.52;;;6.70;99.90;;;;;;5072770;28;20055;-71
2022/04/09 06:43:03;;;;;;;11.35;1.90;;;6.50;99.90;;;;;;5074047;28;20036;-71
2022/04/09 06:45:29;;;;;;;7.10;2.67;;;6.40;99.90;;;;;;5054132;28;20052;-70
2022/04/09 06:47:55;;;;;;;8.95;2.10;;;6.40;99.90;;;;;;5069721;28;20457;-71
2022/04/09 06:50:21;;;;;;;7.85;1.65;;;6.60;99.90;;;;;;5072663;28;20043;-71
2022/04/09 06:52:47;;;;;;;10.18;1.77;;;6.90;99.90;;;;;;5072739;28;20036;-70
2022/04/09 06:55:13;;;;;;;12.85;2.50;;;7.10;99.90;;;;;;5072461;28;20044;-71
2022/04/09 06:57:41;;;;;;;6.68;1.75;;;7.00;99.90;;;;;;5072486;28;20044;-71
2022/04/09 07:00:11;;;;;;;22.92;3.97;;;7.10;99.90;;;;;;5073855;28;20048;-71
2022/04/09 07:02:37;;;;;;;6.03;1.80;;;7.30;99.90;;;;;;5072574;28;20051;-71
2022/04/09 07:05:03;;;;;;;7.63;2.13;;;7.30;99.90;;;;;;5073494;28;20477;-71
2022/04/09 07:07:29;;;;;;;7.57;2.08;;;7.00;99.90;;;;;;5072205;28;20068;-71
2022/04/09 07:10:09;;;;;;;10.20;1.83;;;6.90;99.90;;;;;;5073466;28;20068;-71
2022/04/09 07:12:36;;;;;;;5.80;1.52;;;6.90;99.90;;;;;;5071687;28;20087;-71
2022/04/09 07:15:02;;;;;;;7.40;2.70;;;7.10;99.90;;;;;;5049975;28;20044;-73
2022/04/09 07:17:29;;;;;;;12.50;2.00;;;7.20;99.90;;;;;;5053255;28;20481;-71
2022/04/09 07:20:06;;;;;;;6.50;1.52;;;7.30;99.90;;;;;;5052035;28;20053;-71
2022/04/09 07:22:34;;;;;;;10.15;2.22;;;7.30;99.90;;;;;;5052272;28;20374;-71
2022/04/09 07:25:00;;;;;;;7.43;1.25;;;7.40;99.90;;;;;;5053298;28;20106;-70
2022/04/09 07:27:35;;;;;;;11.27;2.50;;;7.40;99.90;;;;;;5055747;28;20048;-71
2022/04/09 07:30:03;;;;;;;5.50;1.45;;;7.60;99.90;;;;;;5049321;28;20359;-71
2022/04/09 07:32:28;;;;;;;8.18;1.42;;;7.70;99.90;;;;;;5051899;28;20470;-71
2022/04/09 07:34:54;;;;;;;6.70;1.20;;;7.80;99.90;;;;;;5052775;28;20037;-72
2022/04/09 07:37:20;;;;;;;6.95;1.77;;;7.80;99.90;;;;;;5051973;28;20052;-71
2022/04/09 07:39:46;;;;;;;9.88;1.92;;;7.80;99.90;;;;;;5053131;28;20102;-72
2022/04/09 07:42:12;;;;;;;10.05;2.70;;;7.80;99.90;;;;;;5051651;28;20059;-71
2022/04/09 07:44:38;;;;;;;7.60;1.50;;;7.80;99.90;;;;;;5032694;28;20056;-71
2022/04/09 07:47:04;;;;;;;6.68;1.30;;;7.90;99.90;;;;;;5051720;28;20048;-72
2022/04/09 07:49:29;;;;;;;5.15;1.10;;;8.10;99.90;;;;;;5051508;28;20043;-71
2022/04/09 07:51:55;;;;;;;7.40;1.20;;;8.20;99.90;;;;;;5051814;28;20033;-70
2022/04/09 07:54:22;;;;;;;8.75;1.90;;;8.30;99.90;;;;;;5051757;28;20048;-71
2022/04/09 07:56:48;;;;;;;8.57;1.30;;;8.50;99.90;;;;;;5018712;28;20044;-71
2022/04/09 07:59:14;;;;;;;9.50;1.42;;;8.60;99.90;;;;;;5052684;28;20044;-70
2022/04/09 08:01:40;;;;;;;10.88;2.03;;;8.60;99.90;;;;;;5053033;28;20120;-72
2022/04/09 08:04:05;;;;;;;9.60;1.48;;;8.80;99.90;;;;;;5048462;28;20423;-72
2022/04/09 08:06:32;;;;;;;4.13;1.02;;;9.10;99.90;;;;;;5051578;28;20033;-71
2022/04/09 08:08:58;;;;;;;9.10;1.85;;;9.50;99.90;;;;;;5051823;28;20135;-71
2022/04/09 08:11:24;;;;;;;6.13;1.00;;;9.80;99.90;;;;;;5052762;28;20481;-71
2022/04/09 08:13:50;;;;;;;4.82;1.20;;;9.90;99.90;;;;;;5061931;28;20051;-72
2022/04/09 08:16:16;;;;;;;3.15;0.60;;;9.70;99.90;;;;;;5071297;28;20110;-70
2022/04/09 08:18:42;;;;;;;3.35;0.82;;;9.30;99.90;;;;;;5072538;28;20080;-72
2022/04/09 08:21:07;;;;;;;4.30;0.70;;;9.00;99.90;;;;;;5072400;28;20071;-74
2022/04/09 08:23:33;;;;;;;2.88;0.65;;;8.70;99.90;;;;;;5072427;28;20044;-71
2022/04/09 08:26:01;;;;;;;6.53;1.20;;;8.50;99.90;;;;;;5071589;28;20036;-70
2022/04/09 08:28:30;;;;;;;4.90;0.60;;;8.20;99.90;;;;;;5072408;28;20129;-71
2022/04/09 08:30:56;;;;;;;3.95;0.82;;;8.30;99.90;;;;;;5071267;28;20072;-71
2022/04/09 08:33:22;;;;;;;4.65;0.65;;;8.70;99.90;;;;;;5070960;28;20063;-72
2022/04/09 08:35:48;;;;;;;2.53;0.70;;;9.00;99.90;;;;;;5071192;28;20040;-72
2022/04/09 08:38:14;;;;;;;4.07;0.90;;;9.30;99.90;;;;;;5067405;28;20116;-72
2022/04/09 08:40:40;;;;;;;4.25;0.60;;;9.80;99.90;;;;;;5054358;28;20045;-71
2022/04/09 08:43:08;;;;;;;5.45;0.73;;;10.00;99.90;;;;;;5070776;28;20492;-72
2022/04/09 08:45:36;;;;;;;5.22;0.90;;;10.30;99.90;;;;;;5064659;28;20033;-72
2022/04/09 08:48:05;;;;;;;5.30;1.00;;;10.50;99.90;;;;;;5070602;28;20044;-72
2022/04/09 08:50:31;;;;;;;3.00;0.90;;;10.70;99.90;;;;;;5072186;28;20051;-74
2022/04/09 08:53:05;;;;;;;4.63;1.05;;;10.90;99.90;;;;;;5070804;28;20040;-73
2022/04/09 08:55:31;;;;;;;4.95;1.10;;;11.00;99.90;;;;;;5072045;28;20064;-71
2022/04/09 08:57:57;;;;;;;6.63;1.00;;;11.20;99.90;;;;;;5070683;28;20048;-72
2022/04/09 09:00:23;;;;;;;6.05;1.27;;;11.30;99.90;;;;;;5071927;28;20056;-72
2022/04/09 09:03:10;;;;;;;3.90;1.20;;;11.30;99.90;;;;;;5057825;28;20059;-72
2022/04/09 09:05:41;;;;;;;3.90;1.08;;;11.30;99.90;;;;;;5074654;28;20094;-74
2022/04/09 09:08:10;;;;;;;5.07;1.40;;;11.40;99.90;;;;;;5075630;28;20040;-73
2022/04/09 09:10:37;;;;;;;6.07;1.30;;;11.10;99.90;;;;;;5074562;28;20539;-71
2022/04/09 09:13:10;;;;;;;7.32;1.38;;;10.90;99.90;;;;;;5074578;28;20070;-72
2022/04/09 09:15:52;;;;;;;8.18;1.70;;;11.00;99.90;;;;;;5072297;28;20481;-72
2022/04/09 09:18:26;;;;;;;10.35;1.77;;;11.40;99.90;;;;;;5074364;28;20048;-72
2022/04/09 09:21:00;;;;;;;7.28;1.70;;;11.30;99.90;;;;;;5074084;28;20067;-72
2022/04/09 09:23:29;;;;;;;7.57;1.95;;;10.70;99.90;;;;;;5075399;28;20097;-73
2022/04/09 09:25:56;;;;;;;9.50;1.70;;;10.30;99.90;;;;;;5074526;28;20040;-72
2022/04/09 09:28:29;;;;;;;9.20;1.85;;;10.50;99.90;;;;;;5075474;28;20090;-73
2022/04/09 09:30:56;;;;;;;8.70;1.50;;;11.00;99.90;;;;;;5075589;28;20389;-71
2022/04/09 09:33:23;;;;;;;8.95;1.75;;;11.30;99.90;;;;;;5075313;28;20044;-73
2022/04/09 09:35:59;;;;;;;5.93;1.52;;;11.50;99.90;;;;;;5074120;28;20127;-73
2022/04/09 09:38:40;;;;;;;7.85;1.88;;;11.00;99.90;;;;;;5075368;28;20033;-71
2022/04/09 09:41:22;;;;;;;8.25;1.85;;;10.40;99.90;;;;;;5074271;28;20067;-71
2022/04/09 09:44:01;;;;;;;8.50;1.73;;;10.00;99.90;;;;;;5072744;28;20485;-71
2022/04/09 09:46:27;;;;;;;6.43;1.30;;;10.50;99.90;;;;;;5073816;28;20080;-72
2022/04/09 09:48:53;;;;;;;7.57;1.60;;;10.70;99.90;;;;;;5073660;28;20072;-72
2022/04/09 09:51:25;;;;;;;6.95;1.92;;;10.60;99.90;;;;;;5075009;28;20043;-71
2022/04/09 09:54:07;;;;;;;7.47;1.88;;;10.30;99.90;;;;;;5074964;28;20048;-73
2022/04/09 09:56:43;;;;;;;8.90;1.80;;;10.10;99.90;;;;;;5075174;28;20127;-73
2022/04/09 09:59:14;;;;;;;6.57;1.65;;;9.90;99.90;;;;;;5056961;28;20052;-74
2022/04/09 10:01:44;;;;;;;10.38;1.58;;;9.70;99.90;;;;;;5074994;28;20622;-73
2022/04/09 10:04:12;;;;;;;6.68;1.52;;;9.80;99.90;;;;;;5074768;28;20051;-74
2022/04/09 10:06:42;;;;;;;13.80;1.95;;;10.10;99.90;;;;;;5073741;28;20036;-74
2022/04/09 10:09:09;;;;;;;9.25;1.70;;;10.20;99.90;;;;;;5073467;28;20044;-70
2022/04/09 10:11:36;;;;;;;7.60;1.20;;;10.10;99.90;;;;;;5073780;28;20036;-71
2022/04/09 10:14:07;;;;;;;5.18;1.50;;;9.70;99.90;;;;;;5059111;28;20047;-73
2022/04/09 10:16:36;;;;;;;;;;;9.00;99.90;;;;;;5054934;28;20056;-68
2022/04/09 10:19:04;;;;;;;9.80;1.50;;;8.30;99.90;;;;;;5054416;28;20003;-72
2022/04/09 10:21:33;;;;;;;9.82;1.70;;;7.90;99.90;;;;;;5050677;28;20092;-70
2022/04/09 10:24:04;;;;;;;9.85;1.50;;;7.60;99.90;;;;;;5054473;28;20371;-72
2022/04/09 10:26:30;;;;;;;4.07;1.13;;;7.50;99.90;;;;;;5036566;28;20044;-72
2022/04/09 10:29:08;;;;;;;4.13;0.90;;;7.70;99.90;;;;;;5036490;28;20466;-76
2022/04/09 10:31:39;;;;;;;4.65;1.25;;;8.30;99.90;;;;;;5053170;28;20068;-74
2022/04/09 10:34:16;;;;;;;3.20;1.60;;;8.50;99.90;;;;;;5052981;28;20052;-75
2022/04/09 10:36:44;;;;;;;7.25;1.40;;;8.30;99.90;;;;;;5053075;28;20045;-72
2022/04/09 10:39:39;;;;;;;6.25;1.30;;;8.10;99.90;;;;;;5054290;28;20098;-73
2022/04/09 10:42:05;;;;;;;3.80;1.10;;;7.60;99.90;;;;;;5053948;28;20512;-72
2022/04/09 10:44:43;;;;;;;3.60;0.80;;;7.30;99.90;;;;;;5050500;28;20041;-73
2022/04/09 10:47:18;;;;;;;4.10;2.20;;;7.20;99.90;;;;;;5052740;28;20099;-72
2022/04/09 10:50:02;;;;;;;6.55;1.20;;;7.20;99.90;;;;;;5054043;28;20072;-72
2022/04/09 10:52:29;;;;;;;3.78;1.27;;;7.20;99.90;;;;;;5035996;28;20041;-72
2022/04/09 10:55:13;;;;;;;5.68;1.60;;;7.50;99.90;;;;;;5053984;28;20033;-72
2022/04/09 10:57:44;;;;;;;8.70;1.23;;;8.50;99.90;;;;;;5052617;28;20064;-72
2022/04/09 11:00:22;;;;;;;9.23;1.55;;;9.30;99.90;;;;;;5035782;28;20123;-72
2022/04/09 11:03:29;;;;;;;5.30;1.08;;;9.20;99.90;;;;;;5053552;28;20124;-70
2022/04/09 11:06:32;;;;;;;6.00;1.33;;;8.60;99.90;;;;;;5031175;28;20512;-72
2022/04/09 11:08:58;;;;;;;4.95;1.30;;;7.80;99.90;;;;;;5053486;28;20489;-72
2022/04/09 11:11:25;;;;;;;7.57;1.08;;;7.20;99.90;;;;;;5053581;28;20065;-72
2022/04/09 11:13:53;;;;;;;5.63;1.83;;;6.90;99.90;;;;;;5063211;28;20447;-72
2022/04/09 11:16:20;;;;;;;14.98;6.82;;;6.70;99.90;;;;;;5073274;28;20043;-72
2022/04/09 11:18:47;;;;;;;7.10;3.05;;;6.80;99.90;;;;;;5072124;28;20048;-70
2022/04/09 11:21:13;;;;;;;11.95;6.18;;;7.10;99.90;;;;;;5071847;28;20567;-71
2022/04/09 11:23:39;;;;;;;10.88;4.97;;;7.20;99.90;;;;;;5071489;28;20485;-71
2022/04/09 11:26:04;;;;;;;10.38;4.97;;;7.10;99.90;;;;;;5072750;28;20044;-72
2022/04/09 11:28:39;;;;;;;3.95;1.40;;;7.00;99.90;;;;;;5074343;28;20041;-72
2022/04/09 11:31:05;;;;;;;6.28;1.50;;;7.00;99.90;;;;;;5073288;28;20055;-71
2022/04/09 11:33:31;;;;;;;5.32;1.23;;;7.20;99.90;;;;;;5073222;28;20041;-73
2022/04/09 11:35:59;;;;;;;5.10;1.00;;;7.40;99.90;;;;;;5071743;28;20040;-70
2022/04/09 11:38:26;;;;;;;7.97;1.60;;;7.30;99.90;;;;;;5073001;28;20055;-71
2022/04/09 11:40:54;;;;;;;6.85;1.67;;;7.30;99.90;;;;;;5054911;28;20032;-71
2022/04/09 11:43:21;;;;;;;6.00;1.25;;;7.40;99.90;;;;;;5070892;28;20431;-72
2022/04/09 11:45:47;;;;;;;6.75;1.33;;;7.90;99.90;;;;;;5071259;28;20382;-71
2022/04/09 11:48:25;;;;;;;6.15;1.48;;;8.70;99.90;;;;;;5072991;28;20087;-70
2022/04/09 11:50:52;;;;;;;5.70;1.65;;;9.70;99.90;;;;;;5071736;28;20346;-70
2022/04/09 11:53:23;;;;;;;6.53;2.10;;;10.40;99.90;;;;;;5071773;28;20119;-71
2022/04/09 11:55:57;;;;;;;10.35;1.42;;;10.70;99.90;;;;;;5055159;28;20036;-72
2022/04/09 11:58:30;;;;;;;3.28;0.88;;;10.90;99.90;;;;;;5071867;28;20097;-71
2022/04/09 12:01:00;;;;;;;4.10;1.10;;;10.10;99.90;;;;;;5072680;28;20385;-70
2022/04/09 12:03:26;;;;;;;4.18;0.85;;;8.90;99.90;;;;;;5071380;28;20047;-71
2022/04/09 12:05:52;;;;;;;5.22;0.90;;;7.90;99.90;;;;;;5072872;28;20044;-70
2022/04/09 12:08:23;;;;;;;4.40;0.88;;;7.30;99.90;;;;;;5071725;28;20382;-70
2022/04/09 12:11:01;;;;;;;6.75;1.50;;;6.90;99.90;;;;;;5054620;28;20043;-70
2022/04/09 12:13:35;;;;;;;3.63;1.23;;;6.60;99.90;;;;;;5060906;28;20053;-70
2022/04/09 12:16:18;;;;;;;2.67;1.05;;;6.60;99.90;;;;;;5052510;28;20041;-70
2022/04/09 12:18:46;;;;;;;3.65;1.05;;;7.10;99.90;;;;;;5052747;28;20047;-69
2022/04/09 12:21:20;;;;;;;3.78;1.08;;;7.80;99.90;;;;;;5052422;28;20546;-70
2022/04/09 12:23:46;;;;;;;4.47;1.25;;;8.40;99.90;;;;;;5051308;28;20052;-69
2022/04/09 12:26:25;;;;;;;4.45;1.15;;;8.90;99.90;;;;;;5051401;28;20029;-69
2022/04/09 12:29:12;;;;;;;6.28;1.63;;;9.40;99.90;;;;;;5052568;28;20052;-70
2022/04/09 12:31:48;;;;;;;2.00;0.82;;;9.80;99.90;;;;;;5052611;28;20045;-70
2022/04/09 12:34:15;;;;;;;4.72;1.20;;;10.00;99.90;;;;;;5052570;28;20389;-70
2022/04/09 12:37:06;;;;;;;5.32;1.20;;;10.30;99.90;;;;;;5055616;28;20055;-70
2022/04/09 12:39:40;;;;;;;5.43;1.08;;;10.50;99.90;;;;;;5056677;28;20136;-69
2022/04/09 12:42:06;;;;;;;3.50;1.30;;;10.60;99.90;;;;;;5056133;28;20448;-69
2022/04/09 12:44:34;;;;;;;4.30;0.93;;;10.90;99.90;;;;;;5054144;28;20113;-70
2022/04/09 12:47:00;;;;;;;6.05;1.30;;;11.10;99.90;;;;;;5056161;28;20048;-70
2022/04/09 12:49:27;;;;;;;3.30;0.93;;;11.50;99.90;;;;;;5056222;28;20051;-71
2022/04/09 12:51:53;;;;;;;18.35;8.00;;;11.70;99.90;;;;;;5056085;28;20497;-70
2022/04/09 12:54:19;;;;;;;10.48;4.93;;;11.70;99.90;;;;;;5056150;28;20044;-70
2022/04/09 12:56:44;;;;;;;5.97;1.50;;;11.20;99.90;;;;;;5055088;28;20033;-71